createdAt,value
2022-10-31T00:01:18.219Z,99.90
2022-10-31T00:03:45.006Z,99.90
2022-10-31T00:06:11.738Z,99.90
2022-10-31T00:08:38.460Z,99.90
2022-10-31T00:11:08.928Z,99.90
2022-10-31T00:13:35.658Z,99.90
2022-10-31T00:16:02.412Z,99.90
2022-10-31T00:18:29.128Z,99.90
2022-10-31T00:21:02.518Z,99.90
2022-10-31T00:23:29.313Z,99.90
2022-10-31T00:26:00.688Z,99.90
2022-10-31T00:28:27.393Z,99.90
2022-10-31T00:30:54.102Z,99.90
2022-10-31T00:33:20.875Z,99.90
2022-10-31T00:35:51.646Z,99.90
2022-10-31T00:38:18.484Z,99.90
2022-10-31T00:40:45.185Z,99.90
2022-10-31T00:45:43.958Z,99.90
2022-10-31T00:48:10.943Z,99.90
2022-10-31T00:50:37.735Z,99.90
2022-10-31T00:53:04.459Z,99.90
2022-10-31T00:55:31.197Z,99.90
2022-10-31T00:57:58.287Z,99.90
2022-10-31T01:00:25.383Z,99.90
2022-10-31T01:02:52.168Z,99.90
2022-10-31T01:05:19.016Z,99.90
2022-10-31T01:07:45.743Z,99.90
2022-10-31T01:10:12.599Z,99.90
2022-10-31T01:12:44.134Z,99.90
2022-10-31T01:15:11.792Z,99.90
2022-10-31T01:17:38.680Z,99.90
2022-10-31T01:20:06.152Z,99.90
2022-10-31T01:22:33.145Z,99.90
2022-10-31T01:24:59.907Z,99.90
2022-10-31T01:27:26.687Z,99.90
2022-10-31T01:29:53.426Z,99.90
2022-10-31T01:32:20.181Z,99.90
2022-10-31T01:34:46.935Z,99.90
2022-10-31T01:37:13.677Z,99.90
2022-10-31T01:39:40.458Z,99.90
2022-10-31T01:42:07.248Z,99.90
2022-10-31T01:44:33.944Z,99.90
2022-10-31T01:47:00.635Z,99.90
2022-10-31T01:49:52.061Z,99.90
2022-10-31T01:52:25.473Z,99.90
2022-10-31T01:55:04.478Z,99.90
2022-10-31T01:57:31.970Z,99.90
2022-10-31T02:00:02.261Z,99.90
2022-10-31T02:02:29.473Z,99.90
2022-10-31T02:04:56.313Z,99.90
2022-10-31T02:07:47.367Z,99.90
2022-10-31T02:10:14.138Z,99.90
2022-10-31T02:12:40.894Z,99.90
2022-10-31T02:15:08.451Z,99.90
2022-10-31T02:17:35.228Z,99.90
2022-10-31T02:20:24.495Z,99.90
2022-10-31T02:23:00.031Z,99.90
2022-10-31T02:25:47.976Z,99.90
2022-10-31T02:28:53.006Z,99.90
2022-10-31T02:31:58.430Z,99.90
2022-10-31T02:34:45.434Z,99.90
2022-10-31T02:37:30.422Z,99.90
2022-10-31T02:40:11.808Z,99.90
2022-10-31T02:43:00.145Z,99.90
2022-10-31T02:45:40.212Z,99.90
2022-10-31T02:48:09.383Z,99.90
2022-10-31T02:50:36.594Z,99.90
2022-10-31T02:53:03.540Z,99.90
2022-10-31T02:55:30.241Z,99.90
2022-10-31T02:58:00.722Z,99.90
2022-10-31T03:00:27.619Z,99.90
2022-10-31T03:03:09.386Z,99.90
2022-10-31T03:06:14.504Z,99.90
2022-10-31T03:08:58.563Z,99.90
2022-10-31T03:11:27.608Z,99.90
2022-10-31T03:14:01.656Z,99.90
2022-10-31T03:16:43.714Z,99.90
2022-10-31T03:19:11.885Z,99.90
2022-10-31T03:21:44.918Z,99.90
2022-10-31T03:24:11.843Z,99.90
2022-10-31T03:26:41.212Z,99.90
2022-10-31T03:29:08.695Z,99.90
2022-10-31T03:31:38.713Z,99.90
2022-10-31T03:34:05.471Z,99.90
2022-10-31T03:36:33.173Z,99.90
2022-10-31T03:39:00.675Z,99.90
2022-10-31T03:41:28.859Z,99.90
2022-10-31T03:44:17.552Z,99.90
2022-10-31T03:46:44.329Z,99.90
2022-10-31T03:49:11.060Z,99.90
2022-10-31T03:51:49.941Z,99.90
2022-10-31T03:54:40.333Z,99.90
2022-10-31T03:57:31.803Z,99.90
2022-10-31T04:00:05.332Z,99.90
2022-10-31T04:02:33.771Z,99.90
2022-10-31T04:05:00.860Z,99.90
2022-10-31T04:07:31.288Z,99.90
2022-10-31T04:09:58.069Z,99.90
2022-10-31T04:12:25.296Z,99.90
2022-10-31T04:14:52.176Z,99.90
2022-10-31T04:17:19.752Z,99.90
2022-10-31T04:19:46.463Z,99.90
2022-10-31T04:22:13.293Z,99.90
2022-10-31T04:24:40.812Z,99.90
2022-10-31T04:27:07.746Z,99.90
2022-10-31T04:29:34.440Z,99.90
2022-10-31T04:32:01.162Z,99.90
2022-10-31T04:34:27.896Z,99.90
2022-10-31T04:36:54.641Z,99.90
2022-10-31T04:39:24.295Z,99.90
2022-10-31T04:41:53.590Z,99.90
2022-10-31T04:44:20.291Z,99.90
2022-10-31T04:46:47.018Z,99.90
2022-10-31T04:49:13.844Z,99.90
2022-10-31T04:51:40.617Z,99.90
2022-10-31T04:54:07.514Z,99.90
2022-10-31T04:56:34.274Z,99.90
2022-10-31T04:59:01.062Z,99.90
2022-10-31T05:01:29.041Z,99.90
2022-10-31T05:03:56.000Z,99.90
2022-10-31T05:06:22.748Z,99.90
2022-10-31T05:08:49.504Z,99.90
2022-10-31T05:11:16.280Z,99.90
2022-10-31T05:13:43.015Z,99.90
2022-10-31T05:16:09.820Z,99.90
2022-10-31T05:18:36.542Z,99.90
2022-10-31T05:21:03.383Z,99.90
2022-10-31T05:23:30.107Z,99.90
2022-10-31T05:25:56.891Z,99.90
2022-10-31T05:28:23.670Z,99.90
2022-10-31T05:30:50.543Z,99.90
2022-10-31T05:33:17.281Z,99.90
2022-10-31T05:35:44.029Z,99.90
2022-10-31T05:38:10.783Z,99.90
2022-10-31T05:40:37.576Z,99.90
2022-10-31T05:43:04.438Z,99.90
2022-10-31T05:45:31.267Z,99.90
2022-10-31T05:47:59.950Z,99.90
2022-10-31T05:50:28.106Z,99.90
2022-10-31T05:52:59.495Z,99.90
2022-10-31T05:55:26.713Z,99.90
2022-10-31T05:57:54.257Z,99.90
2022-10-31T06:00:21.194Z,99.90
2022-10-31T06:02:48.111Z,99.90
2022-10-31T06:05:14.987Z,99.90
2022-10-31T06:07:41.803Z,99.90
2022-10-31T06:10:08.909Z,99.90
2022-10-31T06:12:39.305Z,99.90
2022-10-31T06:15:06.849Z,99.90
2022-10-31T06:17:34.681Z,99.90
2022-10-31T06:20:01.575Z,99.90
2022-10-31T06:22:28.555Z,99.90
2022-10-31T06:24:55.342Z,99.90
2022-10-31T06:27:22.119Z,99.90
2022-10-31T06:29:48.875Z,99.90
2022-10-31T06:32:15.720Z,99.90
2022-10-31T06:34:42.895Z,99.90
2022-10-31T06:37:10.724Z,99.90
2022-10-31T06:39:37.472Z,99.90
2022-10-31T06:42:04.720Z,99.90
2022-10-31T06:44:31.796Z,99.90
2022-10-31T06:46:58.520Z,99.90
2022-10-31T06:49:25.377Z,99.90
2022-10-31T06:51:52.185Z,99.90
2022-10-31T06:54:19.033Z,99.90
2022-10-31T06:56:48.954Z,99.90
2022-10-31T06:59:16.080Z,99.90
2022-10-31T07:01:42.946Z,99.90
2022-10-31T07:04:11.132Z,99.90
2022-10-31T07:06:37.980Z,99.90
2022-10-31T07:09:04.851Z,99.90
2022-10-31T07:11:31.605Z,99.90
2022-10-31T07:13:58.363Z,99.90
2022-10-31T07:16:25.147Z,99.90
2022-10-31T07:18:51.950Z,99.90
2022-10-31T07:21:18.683Z,99.90
2022-10-31T07:23:45.421Z,99.90
2022-10-31T07:26:12.182Z,99.90
2022-10-31T07:28:38.907Z,99.90
2022-10-31T07:31:05.853Z,99.90
2022-10-31T07:33:32.661Z,99.90
2022-10-31T07:35:59.392Z,99.90
2022-10-31T07:38:26.151Z,99.90
2022-10-31T07:40:53.813Z,99.90
2022-10-31T07:43:20.709Z,99.90
2022-10-31T07:45:52.122Z,99.90
2022-10-31T07:48:18.853Z,99.90
2022-10-31T07:50:45.835Z,99.90
2022-10-31T07:53:13.306Z,99.90
2022-10-31T07:55:40.305Z,99.90
2022-10-31T07:58:11.144Z,99.90
2022-10-31T08:00:38.865Z,99.90
2022-10-31T08:03:10.600Z,99.90
2022-10-31T08:05:37.522Z,99.90
2022-10-31T08:08:07.341Z,99.90
2022-10-31T08:10:34.298Z,99.40
2022-10-31T08:13:02.822Z,99.90
2022-10-31T08:15:29.606Z,99.00
2022-10-31T08:17:56.375Z,97.40
2022-10-31T08:20:23.215Z,95.10
2022-10-31T08:22:56.627Z,93.70
2022-10-31T08:25:23.612Z,93.30
2022-10-31T08:27:52.249Z,91.90
2022-10-31T08:30:20.131Z,91.00
2022-10-31T08:32:47.170Z,90.70
2022-10-31T08:35:13.959Z,88.80
2022-10-31T08:37:40.751Z,90.20
2022-10-31T08:40:07.960Z,87.90
2022-10-31T08:42:35.057Z,87.90
2022-10-31T08:45:01.975Z,86.60
2022-10-31T08:47:28.914Z,86.00
2022-10-31T08:49:55.666Z,83.20
2022-10-31T08:52:44.172Z,82.10
2022-10-31T08:55:12.066Z,80.40
2022-10-31T08:57:38.844Z,79.80
2022-10-31T09:00:06.448Z,79.00
2022-10-31T09:02:33.196Z,78.70
2022-10-31T09:04:59.929Z,79.30
2022-10-31T09:07:26.943Z,78.60
2022-10-31T09:09:53.756Z,76.70
2022-10-31T09:12:20.968Z,75.40
2022-10-31T09:14:47.719Z,75.90
2022-10-31T09:17:14.468Z,74.40
2022-10-31T09:19:41.219Z,73.00
2022-10-31T09:22:07.967Z,72.30
2022-10-31T09:24:34.765Z,72.30
2022-10-31T09:27:01.473Z,71.20
2022-10-31T09:29:28.236Z,71.50
2022-10-31T09:31:56.923Z,71.10
2022-10-31T09:34:24.009Z,70.40
2022-10-31T09:36:50.829Z,70.30
2022-10-31T09:39:17.542Z,69.70
2022-10-31T09:42:02.441Z,69.70
2022-10-31T09:44:40.563Z,70.50
2022-10-31T09:47:14.089Z,69.70
2022-10-31T09:50:02.607Z,70.60
2022-10-31T09:52:35.335Z,70.20
2022-10-31T09:55:17.590Z,69.70
2022-10-31T09:57:44.418Z,70.10
2022-10-31T10:00:20.479Z,69.60
2022-10-31T10:03:05.360Z,69.00
2022-10-31T10:05:41.620Z,67.90
2022-10-31T10:08:29.295Z,67.30
2022-10-31T10:11:05.967Z,68.30
2022-10-31T10:14:00.875Z,68.30
2022-10-31T10:16:34.534Z,67.30
2022-10-31T10:19:19.690Z,68.30
2022-10-31T10:21:58.416Z,68.60
2022-10-31T10:24:50.429Z,69.30
2022-10-31T10:27:32.226Z,71.90
2022-10-31T10:30:07.521Z,72.70
2022-10-31T10:32:46.612Z,74.10
2022-10-31T10:35:27.124Z,74.70
2022-10-31T10:38:00.992Z,76.00
2022-10-31T10:40:28.632Z,76.10
2022-10-31T10:43:23.093Z,76.10
2022-10-31T10:46:37.991Z,75.90
2022-10-31T10:49:04.713Z,77.30
2022-10-31T10:52:02.803Z,78.40
2022-10-31T10:54:44.087Z,77.40
2022-10-31T10:59:31.744Z,77.00
2022-10-31T11:01:58.622Z,76.50
2022-10-31T11:04:29.617Z,76.70
2022-10-31T11:07:12.319Z,76.10
2022-10-31T11:09:39.332Z,76.90
2022-10-31T11:12:29.801Z,75.60
2022-10-31T11:15:01.372Z,75.80
2022-10-31T11:17:33.170Z,74.00
2022-10-31T11:20:18.122Z,72.60
2022-10-31T11:22:47.956Z,71.20
2022-10-31T11:25:20.769Z,70.60
2022-10-31T11:27:47.905Z,69.60
2022-10-31T11:30:15.390Z,68.80
2022-10-31T11:32:45.766Z,68.80
2022-10-31T11:35:12.938Z,68.00
2022-10-31T11:37:43.263Z,67.60
2022-10-31T11:40:21.947Z,67.20
2022-10-31T11:42:48.879Z,65.70
2022-10-31T11:45:17.361Z,65.50
2022-10-31T11:47:46.899Z,65.50
2022-10-31T11:50:26.917Z,64.80
2022-10-31T11:55:32.935Z,63.50
2022-10-31T11:58:00.124Z,62.80
2022-10-31T12:03:23.773Z,62.70
2022-10-31T12:06:00.429Z,63.30
2022-10-31T12:08:31.641Z,62.10
2022-10-31T12:11:36.867Z,61.40
2022-10-31T12:14:04.229Z,61.30
2022-10-31T12:16:38.775Z,61.50
2022-10-31T12:19:30.432Z,62.10
2022-10-31T12:21:57.234Z,62.00
2022-10-31T12:24:40.232Z,61.50
2022-10-31T12:27:25.768Z,61.80
2022-10-31T12:29:52.472Z,62.10
2022-10-31T12:32:42.406Z,62.00
2022-10-31T12:35:30.392Z,62.30
2022-10-31T12:38:27.482Z,64.00
2022-10-31T12:41:08.972Z,64.30
2022-10-31T12:43:37.579Z,64.30
2022-10-31T12:46:06.203Z,65.60
2022-10-31T12:48:43.509Z,66.40
2022-10-31T12:51:18.967Z,68.30
2022-10-31T12:53:55.007Z,69.70
2022-10-31T12:56:55.127Z,70.50
2022-10-31T12:59:27.762Z,71.40
2022-10-31T13:02:05.811Z,71.70
2022-10-31T13:04:42.869Z,72.60
2022-10-31T13:07:13.403Z,72.80
2022-10-31T13:09:44.084Z,74.20
2022-10-31T13:12:16.097Z,75.40
2022-10-31T13:14:55.638Z,76.30
2022-10-31T13:17:27.436Z,77.00
2022-10-31T13:19:57.435Z,77.60
2022-10-31T13:22:26.620Z,77.20
2022-10-31T13:25:14.744Z,77.60
2022-10-31T13:28:10.170Z,78.20
2022-10-31T13:30:41.981Z,78.80
2022-10-31T13:33:23.155Z,80.30
2022-10-31T13:36:00.512Z,79.60
2022-10-31T13:38:31.933Z,80.30
2022-10-31T13:41:05.934Z,80.50
2022-10-31T13:43:50.331Z,81.70
2022-10-31T13:46:25.366Z,82.20
2022-10-31T13:48:52.117Z,82.40
2022-10-31T13:51:32.885Z,83.40
2022-10-31T13:54:08.228Z,83.90
2022-10-31T13:56:35.252Z,84.20
2022-10-31T13:59:11.026Z,84.50
2022-10-31T14:01:37.990Z,84.50
2022-10-31T14:04:19.263Z,84.00
2022-10-31T14:06:54.960Z,84.80
2022-10-31T14:10:07.332Z,85.30
2022-10-31T14:12:40.717Z,86.70
2022-10-31T14:15:26.725Z,86.80
2022-10-31T14:18:01.741Z,87.50
2022-10-31T14:20:42.765Z,88.30
2022-10-31T14:23:28.275Z,88.60
2022-10-31T14:25:55.176Z,89.00
2022-10-31T14:28:35.912Z,90.20
2022-10-31T14:31:02.716Z,90.40
2022-10-31T14:33:30.738Z,90.70
2022-10-31T14:36:17.424Z,90.80
2022-10-31T14:39:12.634Z,91.20
2022-10-31T14:42:08.523Z,91.30
2022-10-31T14:44:35.277Z,91.60
2022-10-31T14:47:26.582Z,92.00
2022-10-31T14:50:11.582Z,92.30
2022-10-31T14:52:38.549Z,92.40
2022-10-31T14:55:07.935Z,92.60
2022-10-31T14:57:36.610Z,92.80
2022-10-31T15:00:06.765Z,93.00
2022-10-31T15:02:52.202Z,93.40
2022-10-31T15:05:19.119Z,93.90
2022-10-31T15:07:57.319Z,94.20
2022-10-31T15:10:28.232Z,94.60
2022-10-31T15:12:55.010Z,94.70
2022-10-31T15:15:24.070Z,95.00
2022-10-31T15:17:54.189Z,95.30
2022-10-31T15:20:24.265Z,96.00
2022-10-31T15:22:51.095Z,95.80
2022-10-31T15:25:22.063Z,96.00
2022-10-31T15:27:49.449Z,96.30
2022-10-31T15:30:24.385Z,96.70
2022-10-31T15:32:58.160Z,97.20
2022-10-31T15:35:30.716Z,97.40
2022-10-31T15:37:58.821Z,98.10
2022-10-31T15:40:26.871Z,98.40
2022-10-31T15:43:12.095Z,99.20
2022-10-31T15:45:38.923Z,99.80
2022-10-31T15:48:17.801Z,99.90
2022-10-31T15:50:58.463Z,99.90
2022-10-31T15:53:47.089Z,99.90
2022-10-31T15:56:19.728Z,99.90
2022-10-31T15:58:48.394Z,99.90
2022-10-31T16:01:22.489Z,99.90
2022-10-31T16:04:02.144Z,99.90
2022-10-31T16:06:28.928Z,99.90
2022-10-31T16:08:55.773Z,99.90
2022-10-31T16:11:35.566Z,99.90
2022-10-31T16:14:04.999Z,99.90
2022-10-31T16:16:35.595Z,99.90
2022-10-31T16:19:05.016Z,99.90
2022-10-31T16:21:36.543Z,99.90
2022-10-31T16:24:23.509Z,99.90
2022-10-31T16:26:51.613Z,99.90
2022-10-31T16:29:42.960Z,99.90
2022-10-31T16:32:38.541Z,99.90
2022-10-31T16:35:11.125Z,99.90
2022-10-31T16:37:44.277Z,99.90
2022-10-31T16:40:14.593Z,99.90
2022-10-31T16:42:44.974Z,99.90
2022-10-31T16:45:22.915Z,99.90
2022-10-31T16:47:49.845Z,99.90
2022-10-31T16:50:24.832Z,99.90
2022-10-31T16:53:12.924Z,99.90
2022-10-31T16:55:46.938Z,99.90
2022-10-31T16:58:20.389Z,99.90
2022-10-31T17:00:47.694Z,99.90
2022-10-31T17:03:14.489Z,99.90
2022-10-31T17:05:41.259Z,99.90
2022-10-31T17:08:08.116Z,99.90
2022-10-31T17:10:35.306Z,99.90
2022-10-31T17:13:03.814Z,99.90
2022-10-31T17:15:36.467Z,99.90
2022-10-31T17:18:03.639Z,99.90
2022-10-31T17:20:31.400Z,99.90
2022-10-31T17:22:59.236Z,99.90
2022-10-31T17:25:28.383Z,99.90
2022-10-31T17:27:55.313Z,99.90
2022-10-31T17:30:22.414Z,99.90
2022-10-31T17:32:49.480Z,99.90
2022-10-31T17:35:16.871Z,99.90
2022-10-31T17:37:44.272Z,99.90
2022-10-31T17:40:12.003Z,99.90
2022-10-31T17:42:38.732Z,99.90
2022-10-31T17:45:06.997Z,99.90
2022-10-31T17:47:34.281Z,99.90
2022-10-31T17:50:01.524Z,99.90
2022-10-31T17:52:28.842Z,99.90
2022-10-31T17:54:55.591Z,99.90
2022-10-31T17:57:22.358Z,99.90
2022-10-31T17:59:49.093Z,99.90
2022-10-31T18:02:16.101Z,99.90
2022-10-31T18:04:42.963Z,99.90
2022-10-31T18:07:09.720Z,99.90
2022-10-31T18:09:36.530Z,99.90
2022-10-31T18:12:03.422Z,99.90
2022-10-31T18:14:30.240Z,99.90
2022-10-31T18:16:56.995Z,99.90
2022-10-31T18:19:23.857Z,99.90
2022-10-31T18:21:50.655Z,99.90
2022-10-31T18:24:17.400Z,99.90
2022-10-31T18:26:44.159Z,99.90
2022-10-31T18:29:11.879Z,99.90
2022-10-31T18:31:38.683Z,99.90
2022-10-31T18:34:05.413Z,99.90
2022-10-31T18:36:32.249Z,99.90
2022-10-31T18:38:59.054Z,99.90
2022-10-31T18:41:25.834Z,99.90
2022-10-31T18:43:56.131Z,99.90
2022-10-31T18:46:22.874Z,99.90
2022-10-31T18:48:49.673Z,99.90
2022-10-31T18:51:18.374Z,99.90
2022-10-31T18:54:01.142Z,99.90
2022-10-31T18:56:29.033Z,99.90
2022-10-31T18:58:55.804Z,99.90
2022-10-31T19:01:22.713Z,99.90
2022-10-31T19:03:54.049Z,99.90
2022-10-31T19:06:20.845Z,99.90
2022-10-31T19:08:47.566Z,99.90
2022-10-31T19:11:14.757Z,99.90
2022-10-31T19:13:42.016Z,99.90
2022-10-31T19:16:10.300Z,99.90
2022-10-31T19:18:37.291Z,99.90
2022-10-31T19:21:11.276Z,99.90
2022-10-31T19:23:38.327Z,99.90
2022-10-31T19:26:05.306Z,99.90
2022-10-31T19:28:33.189Z,99.90
2022-10-31T19:31:00.045Z,99.90
2022-10-31T19:33:33.368Z,99.90
2022-10-31T19:36:13.863Z,99.90
2022-10-31T19:38:42.655Z,99.90
2022-10-31T19:41:11.707Z,99.90
2022-10-31T19:43:38.486Z,99.90
2022-10-31T19:46:05.632Z,99.90
2022-10-31T19:48:32.487Z,99.90
2022-10-31T19:51:06.443Z,99.90
2022-10-31T19:53:33.235Z,99.90
2022-10-31T19:56:00.051Z,99.90
2022-10-31T19:58:27.123Z,99.90
2022-10-31T20:00:53.994Z,99.90
2022-10-31T20:03:22.556Z,99.90
2022-10-31T20:05:50.273Z,99.90
2022-10-31T20:08:18.792Z,99.90
2022-10-31T20:10:59.636Z,99.90
2022-10-31T20:13:26.568Z,99.90
2022-10-31T20:15:53.381Z,99.90
2022-10-31T20:18:20.213Z,99.90
2022-10-31T20:20:47.070Z,99.90
2022-10-31T20:23:13.848Z,99.90
2022-10-31T20:25:47.537Z,99.90
2022-10-31T20:28:14.488Z,99.90
2022-10-31T20:30:41.243Z,99.90
2022-10-31T20:33:08.144Z,99.90
2022-10-31T20:35:38.566Z,99.90
2022-10-31T20:38:05.361Z,99.90
2022-10-31T20:40:32.633Z,99.90
2022-10-31T20:42:59.635Z,99.90
2022-10-31T20:45:26.396Z,99.90
2022-10-31T20:47:54.077Z,99.90
2022-10-31T20:50:20.822Z,99.90
2022-10-31T20:52:47.665Z,99.90
2022-10-31T20:55:14.684Z,99.90
2022-10-31T20:57:41.441Z,99.90
2022-10-31T21:00:08.576Z,99.90
2022-10-31T21:02:35.369Z,99.90
2022-10-31T21:05:02.245Z,99.90
2022-10-31T21:07:31.009Z,99.90
2022-10-31T21:09:57.772Z,99.90
2022-10-31T21:12:24.503Z,99.90
2022-10-31T21:14:51.397Z,99.90
2022-10-31T21:17:18.153Z,99.90
2022-10-31T21:19:44.854Z,99.90
2022-10-31T21:22:11.874Z,99.90
2022-10-31T21:24:38.956Z,99.90
2022-10-31T21:27:08.515Z,99.90
2022-10-31T21:29:38.403Z,99.90
2022-10-31T21:32:05.202Z,99.90
2022-10-31T21:34:31.945Z,99.90
2022-10-31T21:36:58.694Z,99.90
2022-10-31T21:39:25.416Z,99.90
2022-10-31T21:41:52.170Z,99.90
2022-10-31T21:44:18.940Z,99.90
2022-10-31T21:46:48.029Z,99.90
2022-10-31T21:49:14.846Z,99.90
2022-10-31T21:51:43.636Z,99.90
2022-10-31T21:54:27.729Z,99.90
2022-10-31T21:56:57.820Z,99.90
2022-10-31T21:59:24.788Z,99.90
2022-10-31T22:01:52.132Z,99.90
2022-10-31T22:04:19.543Z,99.90
2022-10-31T22:06:46.337Z,99.90
2022-10-31T22:09:14.163Z,99.90
2022-10-31T22:11:41.697Z,99.90
2022-10-31T22:14:10.871Z,99.90
2022-10-31T22:16:37.642Z,99.90
2022-10-31T22:19:05.761Z,99.90
2022-10-31T22:21:39.649Z,99.90
2022-10-31T22:24:07.736Z,99.90
2022-10-31T22:26:34.862Z,99.90
2022-10-31T22:29:03.931Z,99.90
2022-10-31T22:31:31.253Z,99.90
2022-10-31T22:33:58.124Z,99.90
2022-10-31T22:36:26.755Z,99.90
2022-10-31T22:38:53.659Z,99.90
2022-10-31T22:41:22.956Z,99.90
2022-10-31T22:43:49.902Z,99.90
2022-10-31T22:46:18.259Z,99.90
2022-10-31T22:48:52.867Z,99.90
2022-10-31T22:51:22.193Z,99.90
2022-10-31T22:53:48.951Z,99.90
2022-10-31T22:56:17.626Z,99.90
2022-10-31T22:58:44.504Z,99.90
2022-10-31T23:01:13.257Z,99.90
2022-10-31T23:03:40.098Z,99.90
2022-10-31T23:06:07.413Z,99.90
2022-10-31T23:08:35.586Z,99.90
2022-10-31T23:11:04.214Z,99.90
2022-10-31T23:13:49.366Z,99.90
2022-10-31T23:16:16.160Z,99.90
2022-10-31T23:18:50.209Z,99.90
2022-10-31T23:21:37.183Z,99.90
2022-10-31T23:24:04.161Z,99.90
2022-10-31T23:26:49.646Z,99.90
2022-10-31T23:29:16.403Z,99.90
2022-10-31T23:31:43.117Z,99.90
2022-10-31T23:34:09.880Z,99.90
2022-10-31T23:36:36.585Z,99.90
2022-10-31T23:39:03.466Z,99.90
2022-10-31T23:41:30.217Z,99.90
2022-10-31T23:43:57.005Z,99.90
2022-10-31T23:46:23.728Z,99.90
2022-10-31T23:48:53.600Z,99.90
2022-10-31T23:51:20.279Z,99.90
2022-10-31T23:53:47.041Z,99.90
2022-10-31T23:56:13.885Z,99.90
2022-10-31T23:58:40.744Z,99.90
